logo
Search for airport 
image banner adimage banner adimage banner ad
image banner ad

EGSE86 - Tiffenden

Located in Woodchurch, United Kingdom

ICAO - , IATA -

Data provided by Airmate  

General information

Coordinates: N51°5'40" E0°44'26"
Elevation is 106 feet MSL.
 
View others Airports in England

Operational data

Special qualification required
Current time UTC:
Current local time:
Weather at : EGMD - Lydd ( 21 km )
METAR: EGMD 070220Z AUTO 32002KT 9999 NCD M01/M02 Q1039
TAF: TAF EGMD 060453Z 0606/0615 35004KT CAVOK TEMPO 0606/0610 7000 PROB30 0606/0609 0300 FG VV///
View NOTAMs / SUP AIP / TFR affecting this airport [VIEW]
Communications frequencies: [VIEW]

Runways:

RWY identifierQFULength (ft)Width (ft)SurfaceLDA (ft)
06196849GRASS
24196849GRASS

Airport contact information

Address: Woodchurch United Kingdom

Satellite view of EGSE86